Time;durP1;ratioP1;P1;durP2;ratioP2;P2;SDS_P1;SDS_P2;PMS_P1;PMS_P2;Temp;Humidity;BMP_temperature;BMP_pressure;BME280_temperature;BME280_humidity;BME280_pressure;Samples;Min_cycle;Max_cycle;Signal;HPM_P1;HPM_P2
2021/12/05 00:20:37;;;;;;;27.80;20.25;;;2.30;99.90;;;;;;2122827;27;20062;-69
2021/12/05 00:21:41;;;;;;;26.25;19.40;;;2.30;99.90;;;;;;2121784;27;20027;-70
2021/12/05 00:22:45;;;;;;;29.25;21.08;;;2.30;99.90;;;;;;2122631;27;20038;-70
2021/12/05 00:23:50;;;;;;;27.65;20.58;;;2.30;99.90;;;;;;2122831;27;20064;-70
2021/12/05 00:24:55;;;;;;;25.40;19.45;;;2.30;99.90;;;;;;2122923;27;20034;-70
2021/12/05 00:25:58;;;;;;;25.75;19.17;;;2.30;99.90;;;;;;2122816;27;20038;-71
2021/12/05 00:27:06;;;;;;;24.58;18.90;;;2.30;99.90;;;;;;2122653;27;20027;-70
2021/12/05 00:29:07;;;;;;;26.35;19.35;;;2.30;99.90;;;;;;2122752;27;20018;-71
2021/12/05 00:29:36;;;;;;;27.05;19.85;;;2.30;99.90;;;;;;2114580;27;20188;-71
2021/12/05 00:33:21;;;;;;;28.27;20.65;;;2.40;99.90;;;;;;2123606;27;20276;-71
2021/12/05 00:43:47;;;;;;;28.98;20.75;;;2.40;99.90;;;;;;2122302;27;20028;-70
2021/12/05 00:59:15;;;;;;;27.38;20.27;;;2.50;99.90;;;;;;2122182;27;20064;-71
2021/12/05 01:10:13;;;;;;;24.38;18.17;;;2.60;99.90;;;;;;2121621;27;20577;-69
2021/12/05 01:11:27;;;;;;;24.40;17.67;;;2.70;99.90;;;;;;2121693;27;20620;-70
2021/12/05 01:12:45;;;;;;;24.77;18.65;;;2.70;99.90;;;;;;2121658;27;20647;-71
2021/12/05 01:15:17;;;;;;;25.98;18.92;;;2.70;99.90;;;;;;2115937;27;20097;-70
2021/12/05 01:16:18;;;;;;;25.50;18.67;;;2.70;99.90;;;;;;2121713;27;20078;-71
2021/12/05 01:17:26;;;;;;;26.20;19.27;;;2.70;99.90;;;;;;2121589;27;20106;-70
2021/12/05 01:18:27;;;;;;;25.40;18.58;;;2.70;99.90;;;;;;2113876;28;20027;-70
2021/12/05 01:19:30;;;;;;;25.67;18.30;;;2.70;99.90;;;;;;2121962;27;20103;-70
2021/12/05 01:20:42;;;;;;;23.65;17.98;;;2.80;99.90;;;;;;2122650;27;20027;-74
2021/12/05 01:21:54;;;;;;;23.00;17.17;;;2.80;99.90;;;;;;2120808;27;20461;-71
2021/12/05 01:23:10;;;;;;;23.65;17.27;;;2.80;99.90;;;;;;2114461;28;20061;-70
2021/12/05 01:25:35;;;;;;;22.10;16.95;;;2.80;99.90;;;;;;2122038;27;20023;-71
2021/12/05 01:26:43;;;;;;;20.38;15.52;;;2.80;99.90;;;;;;2121701;27;20031;-69
2021/12/05 01:27:52;;;;;;;21.75;16.45;;;2.80;99.90;;;;;;2121656;28;20122;-70
2021/12/05 01:29:04;;;;;;;22.73;16.85;;;2.80;99.90;;;;;;2121385;28;20496;-69
2021/12/05 01:30:14;;;;;;;21.15;16.15;;;2.90;99.90;;;;;;2121494;28;20030;-70
2021/12/05 01:32:49;;;;;;;22.33;16.10;;;2.90;99.90;;;;;;2121550;27;20443;-71
2021/12/05 01:38:01;;;;;;;21.85;16.50;;;3.00;99.90;;;;;;2121608;27;20032;-70
2021/12/05 01:42:17;;;;;;;21.67;16.02;;;3.00;99.90;;;;;;2120939;28;20042;-69
2021/12/05 01:46:50;;;;;;;21.85;15.30;;;3.10;99.90;;;;;;2121345;27;20084;-70
2021/12/05 01:53:43;;;;;;;19.15;14.65;;;3.20;99.90;;;;;;2121433;27;20019;-70
2021/12/05 01:55:07;;;;;;;17.42;13.13;;;3.20;99.90;;;;;;2117570;28;20146;-69
2021/12/05 01:56:42;;;;;;;16.73;12.70;;;3.20;99.90;;;;;;2115997;28;20023;-72
2021/12/05 02:00:31;;;;;;;19.90;14.30;;;3.20;99.90;;;;;;2121481;27;20631;-70
2021/12/05 02:08:36;;;;;;;15.65;12.32;;;3.40;99.90;;;;;;2122939;28;20106;-70
2021/12/05 02:11:54;;;;;;;13.75;11.18;;;3.50;99.90;;;;;;2121161;28;20098;-70
2021/12/05 02:41:53;;;;;;;10.82;9.25;;;4.10;99.90;;;;;;2122073;27;20034;-71
2021/12/05 02:44:03;;;;;;;10.25;8.93;;;4.20;99.90;;;;;;2123222;27;20026;-72
2021/12/05 02:45:07;;;;;;;10.52;9.00;;;4.20;99.90;;;;;;2122842;27;20023;-71
2021/12/05 02:46:10;;;;;;;10.27;8.70;;;4.20;99.90;;;;;;2114636;27;20067;-70
2021/12/05 02:47:16;;;;;;;10.45;9.20;;;4.20;99.90;;;;;;2122784;27;20035;-69
2021/12/05 02:48:16;;;;;;;9.73;8.63;;;4.20;99.90;;;;;;2122907;27;20136;-70
2021/12/05 02:49:17;;;;;;;10.27;8.73;;;4.20;99.90;;;;;;2122846;27;20186;-70
2021/12/05 02:50:24;;;;;;;11.10;9.13;;;4.20;99.90;;;;;;2114531;27;20111;-70
2021/12/05 02:51:27;;;;;;;10.50;9.18;;;4.30;99.90;;;;;;2122563;27;20028;-70
2021/12/05 02:52:32;;;;;;;10.60;8.45;;;4.30;99.90;;;;;;2122751;27;20030;-70
2021/12/05 02:53:45;;;;;;;9.55;8.55;;;4.30;99.90;;;;;;2114695;27;20039;-70
2021/12/05 02:54:51;;;;;;;11.27;9.13;;;4.30;99.90;;;;;;2115828;27;20034;-69
2021/12/05 02:55:53;;;;;;;9.77;8.68;;;4.30;99.90;;;;;;2122657;27;20031;-70
2021/12/05 02:56:54;;;;;;;10.45;8.38;;;4.30;99.90;;;;;;2114324;28;20353;-70
2021/12/05 02:58:03;;;;;;;11.25;8.95;;;4.30;99.90;;;;;;2106225;28;20038;-70
2021/12/05 02:59:18;;;;;;;10.15;9.05;;;4.30;99.90;;;;;;2115685;27;20023;-69
2021/12/05 03:00:36;;;;;;;10.40;8.77;;;4.30;99.90;;;;;;2122896;27;20115;-70
2021/12/05 03:01:44;;;;;;;10.38;8.63;;;4.40;99.90;;;;;;2121779;27;20027;-70
2021/12/05 03:02:48;;;;;;;11.10;8.77;;;4.40;99.90;;;;;;2115064;27;20024;-70
2021/12/05 03:03:52;;;;;;;9.88;8.45;;;4.40;99.90;;;;;;2114594;27;20024;-72
2021/12/05 03:04:57;;;;;;;10.80;8.65;;;4.40;99.90;;;;;;2122856;27;20059;-70
2021/12/05 03:06:11;;;;;;;10.98;9.35;;;4.40;99.90;;;;;;2123418;27;20368;-70
2021/12/05 03:07:19;;;;;;;11.75;9.07;;;4.40;99.90;;;;;;2123075;27;20011;-70
2021/12/05 03:08:20;;;;;;;10.60;9.10;;;4.40;99.90;;;;;;2115156;27;20120;-70
2021/12/05 03:09:22;;;;;;;11.18;9.40;;;4.40;99.90;;;;;;2127297;27;20065;-71
2021/12/05 03:10:23;;;;;;;10.43;9.32;;;4.40;99.90;;;;;;2129035;27;20023;-69
2021/12/05 03:11:26;;;;;;;11.45;9.50;;;4.40;99.90;;;;;;2121878;27;20015;-70
2021/12/05 03:12:29;;;;;;;11.85;9.10;;;4.40;99.90;;;;;;2122426;27;20015;-70
2021/12/05 03:13:34;;;;;;;10.13;9.00;;;4.40;99.90;;;;;;2125945;27;20043;-71
2021/12/05 03:14:35;;;;;;;11.55;9.77;;;4.40;99.90;;;;;;2122878;27;20531;-70
2021/12/05 03:15:39;;;;;;;12.15;9.85;;;4.40;99.90;;;;;;2114048;28;20549;-70
2021/12/05 03:16:41;;;;;;;12.82;10.18;;;4.40;99.90;;;;;;2114390;28;20039;-70
2021/12/05 03:17:45;;;;;;;14.90;10.00;;;4.40;99.90;;;;;;2114003;28;20072;-70
2021/12/05 03:18:49;;;;;;;11.70;9.90;;;4.50;99.90;;;;;;2106998;28;20020;-72
2021/12/05 03:19:51;;;;;;;10.73;9.30;;;4.50;99.90;;;;;;2114189;27;20072;-71
2021/12/05 03:20:53;;;;;;;11.93;9.07;;;4.50;99.90;;;;;;2122584;27;20563;-70
2021/12/05 03:21:54;;;;;;;11.98;9.70;;;4.50;99.90;;;;;;2113358;28;20027;-70
2021/12/05 03:22:58;;;;;;;11.73;9.23;;;4.50;99.90;;;;;;2122848;27;20026;-70
2021/12/05 03:24:01;;;;;;;10.45;8.38;;;4.50;99.90;;;;;;2122661;27;20068;-70
2021/12/05 03:25:06;;;;;;;9.52;8.20;;;4.50;99.90;;;;;;2123389;27;20016;-70
2021/12/05 03:26:10;;;;;;;11.95;9.13;;;4.50;99.90;;;;;;2113757;27;20500;-70
2021/12/05 03:27:11;;;;;;;12.18;8.82;;;4.50;99.90;;;;;;2114639;27;20134;-71
2021/12/05 03:28:11;;;;;;;9.82;8.38;;;4.50;99.90;;;;;;2122247;27;20027;-70
2021/12/05 03:29:15;;;;;;;10.27;8.63;;;4.50;99.90;;;;;;2105444;28;20032;-70
2021/12/05 03:30:21;;;;;;;11.18;8.88;;;4.60;99.90;;;;;;2106523;27;20021;-70
2021/12/05 03:31:25;;;;;;;10.57;8.55;;;4.60;99.90;;;;;;2114463;27;20373;-70
2021/12/05 03:32:26;;;;;;;10.95;8.32;;;4.60;99.90;;;;;;2113876;27;20415;-70
2021/12/05 03:33:27;;;;;;;11.55;8.55;;;4.60;99.90;;;;;;2122379;27;20023;-70
2021/12/05 03:34:30;;;;;;;12.43;9.07;;;4.60;99.90;;;;;;2122360;27;20026;-71
2021/12/05 03:35:34;;;;;;;10.45;8.40;;;4.60;99.90;;;;;;2114422;27;20024;-71
2021/12/05 03:36:42;;;;;;;10.50;8.50;;;4.60;99.90;;;;;;2114253;27;20114;-71
2021/12/05 03:37:43;;;;;;;12.00;8.38;;;4.60;99.90;;;;;;2122295;27;20050;-70
2021/12/05 03:38:44;;;;;;;11.70;8.68;;;4.60;99.90;;;;;;2114456;28;20038;-71
2021/12/05 03:39:47;;;;;;;10.77;8.80;;;4.60;99.90;;;;;;2106395;27;20024;-71
2021/12/05 03:40:49;;;;;;;11.32;8.85;;;4.60;99.90;;;;;;2123399;27;20568;-71
2021/12/05 03:41:53;;;;;;;12.02;8.70;;;4.60;99.90;;;;;;2123248;27;20030;-71
2021/12/05 03:42:55;;;;;;;11.82;8.68;;;4.60;99.90;;;;;;2123668;27;20048;-71
2021/12/05 03:43:59;;;;;;;10.90;8.20;;;4.60;99.90;;;;;;2123121;27;20034;-71
2021/12/05 03:45:05;;;;;;;9.40;8.02;;;4.60;99.90;;;;;;2114978;28;20115;-71
2021/12/05 03:46:06;;;;;;;11.30;8.10;;;4.60;99.90;;;;;;2122974;27;20062;-71
2021/12/05 03:47:09;;;;;;;10.93;8.07;;;4.70;99.90;;;;;;2122388;27;20126;-71
2021/12/05 03:48:14;;;;;;;10.98;8.18;;;4.60;99.90;;;;;;2114174;27;20020;-70
2021/12/05 03:49:16;;;;;;;11.55;8.23;;;4.60;99.90;;;;;;2105437;28;20038;-70
2021/12/05 03:50:17;;;;;;;11.68;8.13;;;4.70;99.90;;;;;;2105509;28;20035;-70
2021/12/05 03:51:22;;;;;;;10.90;8.00;;;4.70;99.90;;;;;;2114074;27;20031;-70
2021/12/05 03:52:25;;;;;;;10.10;8.02;;;4.70;99.90;;;;;;2113476;28;20035;-70
2021/12/05 03:53:26;;;;;;;11.00;8.10;;;4.70;99.90;;;;;;2122071;27;20084;-70
2021/12/05 03:54:27;;;;;;;10.77;7.95;;;4.70;99.90;;;;;;2122182;27;20066;-71
2021/12/05 03:55:31;;;;;;;11.00;8.23;;;4.70;99.90;;;;;;2122173;27;20046;-71
2021/12/05 03:56:35;;;;;;;12.05;8.43;;;4.60;99.90;;;;;;2122224;27;20035;-70
2021/12/05 03:57:36;;;;;;;12.50;8.40;;;4.60;99.90;;;;;;2122137;27;20038;-70
2021/12/05 03:58:39;;;;;;;11.13;8.30;;;4.60;99.90;;;;;;2113547;27;20073;-71
2021/12/05 03:59:44;;;;;;;12.23;8.45;;;4.60;99.90;;;;;;2106113;27;20028;-70
2021/12/05 04:00:49;;;;;;;12.18;8.20;;;4.60;99.90;;;;;;2122194;27;20043;-71
2021/12/05 04:01:50;;;;;;;10.85;8.07;;;4.60;99.90;;;;;;2121951;27;20051;-70
2021/12/05 04:02:54;;;;;;;12.25;7.88;;;4.60;99.90;;;;;;2121996;27;20023;-70
2021/12/05 04:03:59;;;;;;;10.27;7.93;;;4.60;99.90;;;;;;2122246;27;20081;-71
2021/12/05 04:05:00;;;;;;;10.10;7.90;;;4.60;99.90;;;;;;2121944;27;20034;-71
2021/12/05 04:06:02;;;;;;;10.98;8.23;;;4.60;99.90;;;;;;2122099;27;20615;-70
2021/12/05 04:07:07;;;;;;;9.88;7.72;;;4.60;99.90;;;;;;2122014;27;20403;-71
2021/12/05 04:08:11;;;;;;;12.00;8.27;;;4.60;99.90;;;;;;2121929;27;20035;-70
2021/12/05 04:09:13;;;;;;;9.85;7.72;;;4.60;99.90;;;;;;2121953;27;20027;-70
2021/12/05 04:10:14;;;;;;;11.73;7.63;;;4.60;99.90;;;;;;2122558;27;20102;-70
2021/12/05 04:11:25;;;;;;;11.10;7.70;;;4.60;99.90;;;;;;2121995;27;20051;-71
2021/12/05 04:12:26;;;;;;;9.25;7.65;;;4.60;99.90;;;;;;2121742;27;20080;-71
2021/12/05 04:13:27;;;;;;;12.55;7.55;;;4.60;99.90;;;;;;2113505;28;20035;-70
2021/12/05 04:14:38;;;;;;;11.10;7.55;;;4.70;99.90;;;;;;2113422;28;20062;-70
2021/12/05 04:15:39;;;;;;;11.68;7.60;;;4.60;99.90;;;;;;2114873;27;20027;-70
2021/12/05 04:16:42;;;;;;;9.93;7.40;;;4.60;99.90;;;;;;2113389;28;20030;-70
2021/12/05 04:17:43;;;;;;;12.07;7.80;;;4.60;99.90;;;;;;2113865;27;20023;-70
2021/12/05 04:18:46;;;;;;;9.60;7.40;;;4.60;99.90;;;;;;2105019;28;20069;-70
2021/12/05 04:19:48;;;;;;;10.60;7.68;;;4.60;99.90;;;;;;2113649;28;20034;-71
2021/12/05 04:20:51;;;;;;;9.07;7.30;;;4.60;99.90;;;;;;2113460;28;20032;-70
2021/12/05 04:21:52;;;;;;;12.02;7.20;;;4.60;99.90;;;;;;2104415;28;20034;-70
2021/12/05 04:22:54;;;;;;;10.38;6.95;;;4.60;99.90;;;;;;2113278;28;20034;-70
2021/12/05 04:23:56;;;;;;;11.18;7.00;;;4.60;99.90;;;;;;2113618;27;20032;-71
2021/12/05 04:24:58;;;;;;;8.52;6.60;;;4.60;99.90;;;;;;2121945;27;20033;-70
2021/12/05 04:26:00;;;;;;;11.15;7.15;;;4.60;99.90;;;;;;2105153;28;20023;-71
2021/12/05 04:27:01;;;;;;;10.82;6.72;;;4.60;99.90;;;;;;2105243;28;20070;-70
2021/12/05 04:28:04;;;;;;;9.20;6.85;;;4.60;99.90;;;;;;2113521;28;20031;-71
2021/12/05 04:29:06;;;;;;;8.88;6.40;;;4.60;99.90;;;;;;2105204;28;20530;-71
2021/12/05 04:30:09;;;;;;;13.02;6.72;;;4.60;99.90;;;;;;2105217;28;20166;-71
2021/12/05 04:31:10;;;;;;;9.32;6.10;;;4.70;99.90;;;;;;2113792;27;20088;-70
2021/12/05 04:32:12;;;;;;;10.25;6.53;;;4.70;99.90;;;;;;2112587;28;20181;-70
2021/12/05 04:33:13;;;;;;;9.05;6.13;;;4.70;99.90;;;;;;2104983;28;20069;-71
2021/12/05 04:34:14;;;;;;;10.32;6.20;;;4.60;99.90;;;;;;2113191;28;20019;-71
2021/12/05 04:35:16;;;;;;;10.02;6.30;;;4.70;99.90;;;;;;2121734;27;20027;-72
2021/12/05 04:36:18;;;;;;;9.30;6.20;;;4.70;99.90;;;;;;2122457;27;20027;-71
2021/12/05 04:37:19;;;;;;;9.05;5.97;;;4.70;99.90;;;;;;2122656;27;20058;-70
2021/12/05 04:38:20;;;;;;;8.88;6.10;;;4.70;99.90;;;;;;2122192;27;20019;-71
2021/12/05 04:39:20;;;;;;;10.32;5.97;;;4.70;99.90;;;;;;2121673;27;20034;-71
2021/12/05 04:40:21;;;;;;;10.85;6.07;;;4.70;99.90;;;;;;2122452;27;20023;-71
2021/12/05 04:41:23;;;;;;;10.20;6.20;;;4.70;99.90;;;;;;2121558;27;20088;-70
2021/12/05 04:42:24;;;;;;;9.23;6.07;;;4.70;99.90;;;;;;2112716;28;20436;-70
2021/12/05 04:43:25;;;;;;;9.35;6.13;;;4.70;99.90;;;;;;2113357;28;20035;-69
2021/12/05 04:44:28;;;;;;;8.23;6.10;;;4.70;99.90;;;;;;2113356;28;20217;-71
2021/12/05 04:45:34;;;;;;;7.72;5.60;;;4.70;99.90;;;;;;2113545;27;20098;-70
2021/12/05 04:46:36;;;;;;;8.25;5.80;;;4.70;99.90;;;;;;2121697;27;20023;-69
2021/12/05 04:47:37;;;;;;;8.10;5.20;;;4.70;99.90;;;;;;2113235;28;20039;-70
2021/12/05 04:48:40;;;;;;;7.53;5.78;;;4.70;99.90;;;;;;2121913;27;20024;-70
2021/12/05 04:49:43;;;;;;;7.97;5.28;;;4.70;99.90;;;;;;2121694;27;20031;-70
2021/12/05 04:50:47;;;;;;;8.95;5.40;;;4.70;99.90;;;;;;2113720;28;20143;-69
2021/12/05 04:51:47;;;;;;;7.63;5.60;;;4.70;99.90;;;;;;2121052;27;20015;-70
2021/12/05 04:52:49;;;;;;;8.50;5.25;;;4.70;99.90;;;;;;2121866;27;20109;-70
2021/12/05 04:53:50;;;;;;;8.50;5.28;;;4.70;99.90;;;;;;2121622;27;20019;-70
2021/12/05 04:54:52;;;;;;;7.25;5.40;;;4.70;99.90;;;;;;2122160;27;20027;-71
2021/12/05 04:55:55;;;;;;;8.25;5.70;;;4.70;99.90;;;;;;2113612;28;20024;-71
2021/12/05 04:56:56;;;;;;;8.57;5.38;;;4.70;99.90;;;;;;2113548;27;20039;-71
2021/12/05 04:58:06;;;;;;;10.30;5.10;;;4.70;99.90;;;;;;2114498;28;20020;-70
2021/12/05 04:59:13;;;;;;;8.57;5.13;;;4.70;99.90;;;;;;2113926;28;20112;-71
2021/12/05 05:00:22;;;;;;;8.40;5.00;;;4.70;99.90;;;;;;2122030;27;20656;-71
2021/12/05 05:01:23;;;;;;;9.30;5.25;;;4.70;99.90;;;;;;2114545;27;20473;-72
2021/12/05 05:02:24;;;;;;;8.02;5.30;;;4.70;99.90;;;;;;2121515;27;20088;-70
2021/12/05 05:03:27;;;;;;;10.32;5.30;;;4.70;99.90;;;;;;2122184;27;20027;-71
2021/12/05 05:04:29;;;;;;;9.43;4.97;;;4.70;99.90;;;;;;2121995;27;20144;-70
2021/12/05 05:05:33;;;;;;;7.28;5.15;;;4.70;99.90;;;;;;2113411;28;20046;-70
2021/12/05 05:06:34;;;;;;;7.78;5.20;;;4.70;99.90;;;;;;2121708;27;20034;-71
2021/12/05 05:07:37;;;;;;;9.15;5.32;;;4.80;99.90;;;;;;2122267;27;20035;-71
2021/12/05 05:08:37;;;;;;;6.35;4.70;;;4.70;99.90;;;;;;2122207;27;20184;-71
2021/12/05 05:09:38;;;;;;;8.68;5.10;;;4.70;99.90;;;;;;2121507;27;20039;-71
2021/12/05 05:10:39;;;;;;;9.02;5.07;;;4.70;99.90;;;;;;2121614;27;20092;-71
2021/12/05 05:11:41;;;;;;;7.40;4.72;;;4.70;99.90;;;;;;2120904;27;20027;-71
2021/12/05 05:12:42;;;;;;;9.70;4.97;;;4.70;99.90;;;;;;2121631;27;20496;-70
2021/12/05 05:13:43;;;;;;;9.07;5.05;;;4.80;99.90;;;;;;2122224;27;20034;-70
2021/12/05 05:14:44;;;;;;;9.23;5.03;;;4.80;99.90;;;;;;2121520;27;20011;-70
2021/12/05 05:15:45;;;;;;;7.18;4.80;;;4.80;99.90;;;;;;2121646;27;20144;-70
2021/12/05 05:16:48;;;;;;;7.57;4.93;;;4.80;99.90;;;;;;2124246;27;20050;-70
2021/12/05 05:17:51;;;;;;;8.27;4.60;;;4.80;99.90;;;;;;2124198;27;20027;-70
2021/12/05 05:18:56;;;;;;;7.07;4.85;;;4.80;99.90;;;;;;2116388;28;20023;-70
2021/12/05 05:20:01;;;;;;;11.77;5.20;;;4.80;99.90;;;;;;2105319;28;20027;-70
2021/12/05 05:22:32;;;;;;;9.05;4.80;;;4.80;99.90;;;;;;2120972;27;20069;-70
2021/12/05 05:25:13;;;;;;;11.02;5.53;;;4.80;99.90;;;;;;2121643;28;20027;-70
2021/12/05 05:41:48;;;;;;;7.53;4.78;;;4.70;99.90;;;;;;2112484;28;20032;-70
2021/12/05 05:44:33;;;;;;;9.10;4.68;;;4.80;99.90;;;;;;2122230;27;20064;-70
2021/12/05 05:45:53;;;;;;;9.18;4.93;;;4.80;99.90;;;;;;2123154;27;20027;-71
2021/12/05 05:47:26;;;;;;;7.80;4.50;;;4.80;99.90;;;;;;2125259;27;20432;-70
2021/12/05 05:50:34;;;;;;;11.10;5.00;;;4.70;99.90;;;;;;2123354;27;20019;-71
2021/12/05 05:51:34;;;;;;;9.60;5.03;;;4.70;99.90;;;;;;2122582;27;20034;-70
2021/12/05 05:52:35;;;;;;;8.85;4.93;;;4.70;99.90;;;;;;2123311;27;20038;-70
2021/12/05 05:53:37;;;;;;;8.23;5.10;;;4.70;99.90;;;;;;2123763;27;20488;-70
2021/12/05 05:54:37;;;;;;;7.55;5.20;;;4.70;99.90;;;;;;2123779;27;20484;-70
2021/12/05 05:55:38;;;;;;;8.10;4.93;;;4.70;99.90;;;;;;2123656;27;20051;-71
2021/12/05 05:56:42;;;;;;;7.90;4.55;;;4.70;99.90;;;;;;2123251;27;20096;-70
2021/12/05 05:57:58;;;;;;;8.30;4.72;;;4.70;99.90;;;;;;2114752;27;20058;-70
2021/12/05 05:59:40;;;;;;;8.68;4.70;;;4.70;99.90;;;;;;2123462;27;20496;-70
2021/12/05 06:00:33;;;;;;;6.88;4.95;;;4.70;99.90;;;;;;2122554;27;20096;-70
2021/12/05 06:03:56;;;;;;;11.25;5.00;;;4.70;99.90;;;;;;2123835;27;20030;-70
2021/12/05 06:04:57;;;;;;;10.75;5.03;;;4.70;99.90;;;;;;2114718;28;20046;-71
2021/12/05 06:05:59;;;;;;;8.07;5.03;;;4.70;99.90;;;;;;2114796;28;20024;-71
2021/12/05 06:07:00;;;;;;;8.73;5.18;;;4.70;99.90;;;;;;2123058;27;20110;-70
2021/12/05 06:08:00;;;;;;;7.72;5.38;;;4.70;99.90;;;;;;2123099;27;20023;-70
2021/12/05 06:09:03;;;;;;;7.80;4.50;;;4.70;99.90;;;;;;2123423;27;20153;-71
2021/12/05 06:10:04;;;;;;;7.68;4.78;;;4.70;99.90;;;;;;2123699;27;20028;-70
2021/12/05 06:11:11;;;;;;;10.55;5.10;;;4.70;99.90;;;;;;2123749;27;20031;-70
2021/12/05 06:12:12;;;;;;;8.68;4.85;;;4.70;99.90;;;;;;2122825;27;20023;-70
2021/12/05 06:13:14;;;;;;;8.20;4.88;;;4.70;99.90;;;;;;2123536;27;20490;-71
2021/12/05 06:14:15;;;;;;;8.50;4.95;;;4.70;99.90;;;;;;2122954;27;20058;-69
2021/12/05 06:15:18;;;;;;;9.20;5.15;;;4.70;99.90;;;;;;2114520;28;20015;-71
2021/12/05 06:16:20;;;;;;;9.85;4.90;;;4.70;99.90;;;;;;2114843;28;20154;-71
2021/12/05 06:17:20;;;;;;;11.07;5.28;;;4.70;99.90;;;;;;2123055;27;20027;-71
2021/12/05 06:18:21;;;;;;;10.30;5.25;;;4.70;99.90;;;;;;2123718;27;20027;-71
2021/12/05 06:19:22;;;;;;;8.98;5.28;;;4.70;99.90;;;;;;2123807;27;20059;-71
2021/12/05 06:20:26;;;;;;;7.97;5.18;;;4.70;99.90;;;;;;2123212;27;20039;-70
2021/12/05 06:21:26;;;;;;;8.38;5.38;;;4.70;99.90;;;;;;2122425;27;20055;-71
2021/12/05 06:22:27;;;;;;;10.48;5.00;;;4.70;99.90;;;;;;2123593;27;20035;-70
2021/12/05 06:23:28;;;;;;;7.35;4.70;;;4.70;99.90;;;;;;2114443;28;20165;-71
2021/12/05 06:24:28;;;;;;;9.35;5.28;;;4.70;99.90;;;;;;2114668;27;20357;-71
2021/12/05 06:25:33;;;;;;;9.50;4.90;;;4.70;99.90;;;;;;2123754;27;20057;-71
2021/12/05 06:26:35;;;;;;;11.10;5.30;;;4.70;99.90;;;;;;2123794;27;20031;-72
2021/12/05 06:27:36;;;;;;;10.07;5.05;;;4.70;99.90;;;;;;2123154;27;20041;-71
2021/12/05 06:28:45;;;;;;;8.80;4.70;;;4.70;99.90;;;;;;2123132;27;20027;-70
2021/12/05 06:29:54;;;;;;;10.60;5.25;;;4.70;99.90;;;;;;2123482;27;20030;-70
2021/12/05 06:37:45;;;;;;;8.25;5.00;;;4.70;99.90;;;;;;2127719;27;20384;-72
2021/12/05 06:40:00;;;;;;;10.32;5.00;;;4.60;99.90;;;;;;2127397;27;20034;-72
2021/12/05 06:46:05;;;;;;;11.77;5.60;;;4.60;99.90;;;;;;2123653;27;20031;-70
2021/12/05 06:47:09;;;;;;;10.02;4.65;;;4.60;99.90;;;;;;2123999;27;20390;-71
2021/12/05 06:48:10;;;;;;;9.90;4.97;;;4.60;99.90;;;;;;2123478;27;20088;-70
2021/12/05 06:49:11;;;;;;;8.00;5.15;;;4.60;99.90;;;;;;2122939;27;20035;-70
2021/12/05 06:50:11;;;;;;;8.63;5.20;;;4.60;99.90;;;;;;2123087;27;20066;-71
2021/12/05 06:51:15;;;;;;;8.93;5.53;;;4.60;99.90;;;;;;2123466;27;20024;-71
2021/12/05 06:52:16;;;;;;;10.00;5.40;;;4.60;99.90;;;;;;2123279;27;20045;-69
2021/12/05 06:53:17;;;;;;;10.85;5.93;;;4.60;99.90;;;;;;2123933;27;20023;-70
2021/12/05 06:54:18;;;;;;;10.32;5.35;;;4.60;99.90;;;;;;2123020;27;20472;-70
2021/12/05 06:55:18;;;;;;;9.30;5.65;;;4.60;99.90;;;;;;2115715;28;20488;-71
2021/12/05 06:56:19;;;;;;;8.93;5.30;;;4.60;99.90;;;;;;2124612;27;20031;-70
2021/12/05 06:57:20;;;;;;;9.15;5.32;;;4.60;99.90;;;;;;2125064;27;20647;-70
2021/12/05 06:58:21;;;;;;;9.07;5.57;;;4.60;99.90;;;;;;2124882;27;20109;-70
2021/12/05 06:59:21;;;;;;;9.65;5.78;;;4.60;99.90;;;;;;2124346;27;20054;-70
2021/12/05 07:00:28;;;;;;;7.50;5.10;;;4.60;99.90;;;;;;2124106;27;20385;-71
2021/12/05 07:01:29;;;;;;;9.55;5.70;;;4.60;99.90;;;;;;2124138;27;20031;-69
2021/12/05 07:02:29;;;;;;;8.68;5.70;;;4.60;99.90;;;;;;2123153;27;20035;-69
2021/12/05 07:03:30;;;;;;;10.73;5.65;;;4.60;99.90;;;;;;2123332;27;20035;-70
2021/12/05 07:04:48;;;;;;;8.15;5.30;;;4.60;99.90;;;;;;2123473;27;20110;-70
2021/12/05 07:06:49;;;;;;;9.48;5.40;;;4.50;99.90;;;;;;2123938;27;20042;-70
2021/12/05 07:07:50;;;;;;;8.63;5.63;;;4.60;99.90;;;;;;2123489;27;20031;-70
2021/12/05 07:08:54;;;;;;;9.93;5.68;;;4.50;99.90;;;;;;2123671;27;20031;-70
2021/12/05 07:09:55;;;;;;;7.35;4.80;;;4.50;99.90;;;;;;2123230;27;20058;-70
2021/12/05 07:14:04;;;;;;;11.52;5.65;;;4.60;99.90;;;;;;2123253;27;20015;-70
2021/12/05 07:15:08;;;;;;;8.82;5.47;;;4.50;99.90;;;;;;2122494;27;20035;-70
2021/12/05 07:19:44;;;;;;;9.43;5.53;;;4.50;99.90;;;;;;2122518;27;20023;-70
2021/12/05 07:21:20;;;;;;;9.07;5.47;;;4.50;99.90;;;;;;2122873;27;20110;-68
2021/12/05 07:22:27;;;;;;;10.23;5.43;;;4.50;99.90;;;;;;2122139;27;20548;-70
2021/12/05 07:23:55;;;;;;;8.27;5.32;;;4.50;99.90;;;;;;2123369;27;20034;-70
2021/12/05 07:25:26;;;;;;;11.27;6.15;;;4.50;99.90;;;;;;2125816;27;20038;-70
2021/12/05 07:26:48;;;;;;;11.48;5.10;;;4.50;99.90;;;;;;2122911;27;20038;-70
2021/12/05 07:40:45;;;;;;;10.25;5.22;;;4.50;99.90;;;;;;2122987;27;20024;-69
2021/12/05 07:41:53;;;;;;;7.70;5.10;;;4.50;99.90;;;;;;2122111;27;20019;-70
2021/12/05 07:43:09;;;;;;;6.45;4.75;;;4.50;99.90;;;;;;2122930;27;20115;-71
2021/12/05 07:44:11;;;;;;;8.38;4.95;;;4.50;99.90;;;;;;2122360;27;20075;-70
2021/12/05 07:45:18;;;;;;;8.20;5.20;;;4.50;99.90;;;;;;2122379;27;20026;-70
2021/12/05 07:46:19;;;;;;;8.77;5.00;;;4.50;99.90;;;;;;2122756;27;20058;-70
2021/12/05 07:47:23;;;;;;;10.38;5.30;;;4.50;99.90;;;;;;2122932;27;20552;-70
2021/12/05 07:48:29;;;;;;;8.45;4.90;;;4.60;99.90;;;;;;2122218;27;20042;-71
2021/12/05 07:49:30;;;;;;;10.73;5.53;;;4.60;99.90;;;;;;2122322;27;20434;-71
2021/12/05 07:50:41;;;;;;;8.50;5.03;;;4.60;99.90;;;;;;2122182;27;20030;-69
2021/12/05 07:51:46;;;;;;;9.85;5.90;;;4.60;99.90;;;;;;2121616;27;20031;-69
2021/12/05 07:52:51;;;;;;;7.97;5.05;;;4.60;99.90;;;;;;2122884;27;20486;-70
2021/12/05 07:54:10;;;;;;;8.13;4.95;;;4.60;99.90;;;;;;2122786;27;20023;-69
2021/12/05 07:55:43;;;;;;;11.15;5.57;;;4.60;99.90;;;;;;2123015;27;20035;-69
2021/12/05 07:56:51;;;;;;;11.70;5.53;;;4.60;99.90;;;;;;2122400;27;20117;-71
2021/12/05 07:58:42;;;;;;;7.85;5.05;;;4.60;99.90;;;;;;2122998;27;20034;-70
2021/12/05 07:59:56;;;;;;;11.15;5.88;;;4.70;99.90;;;;;;2122708;27;20666;-70
2021/12/05 08:01:22;;;;;;;10.60;5.32;;;4.70;99.90;;;;;;2122735;27;20076;-70
2021/12/05 08:15:14;;;;;;;8.15;5.15;;;4.90;99.90;;;;;;2123264;27;20047;-70
2021/12/05 08:15:57;;;;;;;;;;;5.00;99.90;;;;;;2119682;27;20031;-69
2021/12/05 08:16:59;;;;;;;10.23;5.00;;;4.90;99.90;;;;;;2123774;27;20252;-69
2021/12/05 08:18:00;;;;;;;7.38;4.85;;;5.00;99.90;;;;;;2122545;27;20019;-69
2021/12/05 08:19:02;;;;;;;10.10;4.90;;;5.00;99.90;;;;;;2122553;27;20031;-69
2021/12/05 08:20:06;;;;;;;9.02;5.25;;;5.00;99.90;;;;;;2122627;27;20395;-70
2021/12/05 08:21:07;;;;;;;11.07;5.80;;;5.10;99.90;;;;;;2122606;27;20491;-70
2021/12/05 08:22:08;;;;;;;8.82;5.70;;;5.10;99.90;;;;;;2122458;27;20034;-70
2021/12/05 08:23:12;;;;;;;11.38;5.40;;;5.20;99.90;;;;;;2123940;27;20431;-71
2021/12/05 08:24:13;;;;;;;8.23;5.28;;;5.20;99.90;;;;;;2124895;27;20108;-71
2021/12/05 08:25:14;;;;;;;9.15;4.93;;;5.20;99.90;;;;;;2129920;27;20052;-71
2021/12/05 08:26:22;;;;;;;8.00;5.28;;;5.20;99.90;;;;;;2131570;27;20018;-70
2021/12/05 08:27:23;;;;;;;12.35;7.90;;;5.30;99.90;;;;;;2125063;27;20121;-70
2021/12/05 08:29:32;;;;;;;11.57;7.50;;;5.20;99.90;;;;;;2122199;27;20035;-70
2021/12/05 08:29:57;;;;;;;12.52;6.97;;;5.20;99.90;;;;;;2117524;27;20126;-70
2021/12/05 08:31:12;;;;;;;11.77;6.40;;;5.20;99.90;;;;;;2121995;27;20464;-70
2021/12/05 08:32:34;;;;;;;9.45;5.78;;;5.20;99.90;;;;;;2121615;27;20031;-72
2021/12/05 08:34:30;;;;;;;11.20;5.95;;;5.20;99.90;;;;;;2122312;27;20541;-71
2021/12/05 08:35:25;;;;;;;9.95;5.68;;;5.20;99.90;;;;;;2121496;27;20140;-71
2021/12/05 08:42:51;;;;;;;8.52;4.95;;;5.10;99.90;;;;;;2122798;27;20039;-71
2021/12/05 08:44:14;;;;;;;8.02;4.75;;;5.20;99.90;;;;;;2122814;27;20505;-70
2021/12/05 09:23:46;;;;;;;9.88;4.38;;;5.70;99.90;;;;;;2121528;27;20605;-71
2021/12/05 09:26:07;;;;;;;5.50;3.78;;;5.70;99.90;;;;;;2122217;27;20031;-72
2021/12/05 09:29:30;;;;;;;8.50;4.43;;;5.70;99.90;;;;;;2122637;27;20023;-70
2021/12/05 09:39:07;;;;;;;9.85;4.03;;;5.70;99.90;;;;;;2122874;28;20045;-71
2021/12/05 09:40:13;;;;;;;6.43;3.95;;;5.70;99.90;;;;;;2122372;27;20436;-71
2021/12/05 09:50:56;;;;;;;8.02;4.10;;;5.60;99.90;;;;;;2122815;28;20031;-70
2021/12/05 10:13:13;;;;;;;9.23;4.10;;;5.90;99.90;;;;;;2122135;27;20027;-70
2021/12/05 10:14:35;;;;;;;8.95;4.13;;;5.80;99.90;;;;;;2122037;28;20456;-70
2021/12/05 10:15:52;;;;;;;8.27;3.92;;;5.80;99.90;;;;;;2116281;28;20050;-71
2021/12/05 10:17:22;;;;;;;7.85;3.88;;;5.80;99.90;;;;;;2115333;28;20047;-71
2021/12/05 10:19:24;;;;;;;6.28;3.35;;;5.80;99.90;;;;;;2122054;28;20088;-71
2021/12/05 10:26:30;;;;;;;7.32;3.88;;;5.70;99.90;;;;;;2122070;27;20040;-70